Time;durP1;ratioP1;P1;durP2;ratioP2;P2;SDS_P1;SDS_P2;PMS_P1;PMS_P2;Temp;Humidity;BMP_temperature;BMP_pressure;BME280_temperature;BME280_humidity;BME280_pressure;Samples;Min_cycle;Max_cycle;Signal;HPM_P1;HPM_P2
2022/03/31 00:00:39;;;;;;;18.65;10.75;;;384.50;1817.60;;;;;;5049717;28;20025;-55
2022/03/31 00:03:11;;;;;;;18.30;10.52;;;384.50;1817.60;;;;;;5049622;28;20029;-55
2022/03/31 00:05:38;;;;;;;24.13;11.05;;;384.50;1868.80;;;;;;5049132;28;20071;-57
2022/03/31 00:08:06;;;;;;;19.55;9.55;;;384.20;1843.20;;;;;;5038151;28;20030;-56
2022/03/31 00:10:42;;;;;;;21.00;10.30;;;384.10;1868.80;;;;;;5039707;28;20386;-56
2022/03/31 00:13:15;;;;;;;21.83;11.38;;;384.00;1868.80;;;;;;5038126;28;20024;-57
2022/03/31 00:15:41;;;;;;;24.63;11.37;;;384.00;1868.80;;;;;;5038647;28;20414;-57
2022/03/31 00:18:08;;;;;;;30.15;11.20;;;359.30;1894.40;;;;;;5043201;28;20086;-56
2022/03/31 00:20:34;;;;;;;22.27;12.10;;;359.20;1894.40;;;;;;5049565;28;20092;-55
2022/03/31 00:23:00;;;;;;;25.58;12.18;;;359.20;1894.40;;;;;;5049388;28;20025;-55
2022/03/31 00:25:29;;;;;;;24.05;12.27;;;359.20;1894.40;;;;;;5049315;28;20029;-56
2022/03/31 00:27:57;;;;;;;19.17;9.98;;;359.20;1894.40;;;;;;5049285;28;20059;-55
2022/03/31 00:30:24;;;;;;;23.33;10.23;;;359.20;1920.00;;;;;;5049451;28;20025;-55
2022/03/31 00:32:51;;;;;;;20.05;9.98;;;359.10;1920.00;;;;;;5049270;28;20056;-55
2022/03/31 00:35:17;;;;;;;22.63;12.95;;;359.10;1945.60;;;;;;5049115;28;20074;-54
2022/03/31 00:37:44;;;;;;;32.88;15.55;;;359.10;1971.20;;;;;;5053055;28;20526;-55
2022/03/31 00:40:12;;;;;;;43.38;21.23;;;359.20;1971.20;;;;;;5052726;28;20044;-54
2022/03/31 00:42:49;;;;;;;19.25;10.50;;;384.00;1971.20;;;;;;5052596;28;20114;-57
2022/03/31 00:45:34;;;;;;;25.10;8.23;;;359.10;1945.60;;;;;;5052805;28;20025;-55
2022/03/31 00:48:00;;;;;;;26.48;9.82;;;359.00;1971.20;;;;;;5052602;28;20395;-56
2022/03/31 00:50:27;;;;;;;26.25;11.25;;;358.90;2022.40;;;;;;5052694;28;20025;-56
2022/03/31 00:52:54;;;;;;;17.35;10.00;;;359.00;2048.00;;;;;;5052656;28;20055;-56
2022/03/31 00:55:20;;;;;;;18.55;7.38;;;358.90;2176.00;;;;;;5052289;28;20151;-55
2022/03/31 00:57:48;;;;;;;22.15;9.50;;;358.90;2176.00;;;;;;5052188;28;20029;-56
2022/03/31 01:00:14;;;;;;;32.47;15.52;;;358.90;2227.20;;;;;;5052683;28;20442;-55
2022/03/31 01:02:43;;;;;;;23.70;12.82;;;359.00;2329.60;;;;;;5052442;28;20021;-56
2022/03/31 01:05:10;;;;;;;20.20;11.02;;;359.00;2329.60;;;;;;5050490;28;20033;-55
2022/03/31 01:07:37;;;;;;;22.05;10.18;;;359.10;2329.60;;;;;;5052235;28;20021;-56
2022/03/31 01:10:05;;;;;;;21.40;10.38;;;359.10;2329.60;;;;;;5052452;28;20036;-56
2022/03/31 01:12:31;;;;;;;29.17;17.10;;;359.10;2329.60;;;;;;5052246;28;20074;-56
2022/03/31 01:15:16;;;;;;;25.55;14.70;;;359.20;2329.60;;;;;;5052163;28;20021;-55
2022/03/31 01:17:44;;;;;;;38.50;21.33;;;359.20;2329.60;;;;;;5052134;28;20018;-55
2022/03/31 01:20:14;;;;;;;34.60;15.68;;;358.90;2329.60;;;;;;5051770;28;20036;-56
2022/03/31 01:22:43;;;;;;;27.98;14.20;;;358.70;2329.60;;;;;;5051986;28;20471;-55
2022/03/31 01:25:10;;;;;;;28.05;16.88;;;358.60;2329.60;;;;;;5051816;28;20028;-55
2022/03/31 01:27:38;;;;;;;25.27;12.13;;;358.60;2329.60;;;;;;5051720;28;20037;-55
2022/03/31 01:30:13;;;;;;;24.75;11.88;;;358.60;2329.60;;;;;;5051878;28;20044;-56
2022/03/31 01:32:39;;;;;;;32.80;13.05;;;358.60;2329.60;;;;;;5051754;28;20474;-55
2022/03/31 01:35:06;;;;;;;21.08;9.32;;;358.70;2329.60;;;;;;5052001;28;20872;-55
2022/03/31 01:37:32;;;;;;;22.88;10.32;;;358.60;2329.60;;;;;;5051843;28;20090;-56
2022/03/31 01:39:59;;;;;;;23.60;11.18;;;358.60;2329.60;;;;;;5051878;28;20021;-56
2022/03/31 01:42:27;;;;;;;30.00;15.75;;;358.50;2329.60;;;;;;5051838;28;20052;-55
2022/03/31 01:44:53;;;;;;;25.77;11.43;;;358.60;2329.60;;;;;;5051789;28;20360;-55
2022/03/31 01:47:19;;;;;;;36.25;18.75;;;358.60;2329.60;;;;;;5051456;28;20032;-55
2022/03/31 01:49:45;;;;;;;49.63;25.73;;;358.60;2329.60;;;;;;5051649;28;20055;-55
2022/03/31 01:52:11;;;;;;;37.65;18.20;;;358.60;2329.60;;;;;;5051527;28;20017;-55
2022/03/31 01:54:37;;;;;;;34.60;18.90;;;358.50;2329.60;;;;;;5051199;28;20027;-55
2022/03/31 01:57:03;;;;;;;35.35;17.45;;;358.60;2329.60;;;;;;5051403;28;20017;-55
2022/03/31 01:59:37;;;;;;;22.83;11.82;;;358.60;2329.60;;;;;;5051278;28;20029;-55
2022/03/31 02:02:04;;;;;;;15.38;7.70;;;358.40;2329.60;;;;;;5051478;28;20037;-56
2022/03/31 02:04:30;;;;;;;29.60;16.27;;;358.50;2329.60;;;;;;5051296;28;20104;-55
2022/03/31 02:06:56;;;;;;;22.38;13.45;;;358.50;2329.60;;;;;;5051121;28;20032;-55
2022/03/31 02:09:22;;;;;;;26.58;14.05;;;358.50;2329.60;;;;;;5051324;28;20028;-54
2022/03/31 02:11:48;;;;;;;43.45;19.10;;;358.60;2329.60;;;;;;5051010;28;20021;-55
2022/03/31 02:14:14;;;;;;;25.40;13.27;;;358.40;2329.60;;;;;;5051041;28;20032;-55
2022/03/31 02:16:40;;;;;;;10.73;7.57;;;358.50;2329.60;;;;;;5050867;28;20033;-55
2022/03/31 02:19:05;;;;;;;18.55;8.50;;;358.40;2329.60;;;;;;5050701;28;20067;-55
2022/03/31 02:21:31;;;;;;;16.88;10.70;;;333.70;2329.60;;;;;;5051172;28;20035;-55
2022/03/31 02:23:57;;;;;;;23.15;11.82;;;333.70;2329.60;;;;;;5050790;28;20486;-55
2022/03/31 02:26:23;;;;;;;23.45;7.55;;;333.60;2329.60;;;;;;5050966;28;20515;-55
2022/03/31 02:28:48;;;;;;;16.95;7.20;;;333.70;2329.60;;;;;;5050356;28;20052;-55
2022/03/31 02:31:14;;;;;;;18.42;9.85;;;333.50;2329.60;;;;;;5050680;28;20379;-56
2022/03/31 02:33:40;;;;;;;21.73;8.95;;;333.50;2329.60;;;;;;5050669;28;20060;-56
2022/03/31 02:36:07;;;;;;;16.35;7.95;;;333.70;2329.60;;;;;;5050468;28;20468;-55
2022/03/31 02:38:34;;;;;;;14.23;7.88;;;333.70;2329.60;;;;;;5050840;28;20042;-55
2022/03/31 02:41:01;;;;;;;22.50;8.38;;;333.60;2329.60;;;;;;5050552;28;20024;-55
2022/03/31 02:43:27;;;;;;;19.90;9.27;;;333.50;2329.60;;;;;;5050505;28;20430;-55
2022/03/31 02:45:53;;;;;;;16.20;9.02;;;333.40;2329.60;;;;;;5050580;28;20112;-55
2022/03/31 02:48:18;;;;;;;17.45;9.15;;;333.50;2329.60;;;;;;5050071;28;20096;-55
2022/03/31 02:50:44;;;;;;;22.17;10.10;;;333.40;2329.60;;;;;;5050654;28;20092;-55
2022/03/31 02:55:55;;;;;;;21.17;10.32;;;333.40;2329.60;;;;;;5050703;28;20487;-55
2022/03/31 02:58:21;;;;;;;20.60;10.30;;;333.30;2329.60;;;;;;5049896;28;20040;-54
2022/03/31 03:00:48;;;;;;;25.00;11.02;;;333.40;2329.60;;;;;;5050060;28;20090;-55
2022/03/31 03:03:14;;;;;;;23.35;10.18;;;333.40;2329.60;;;;;;5050159;28;20098;-56
2022/03/31 03:05:45;;;;;;;26.88;12.70;;;333.30;2329.60;;;;;;5050030;28;20447;-55
2022/03/31 03:08:12;;;;;;;17.63;9.65;;;333.30;2329.60;;;;;;5050205;28;20039;-55
2022/03/31 03:10:38;;;;;;;19.80;9.93;;;333.30;2329.60;;;;;;5050062;28;20089;-55
2022/03/31 03:13:04;;;;;;;18.98;11.23;;;333.20;2329.60;;;;;;5050363;28;20049;-55
2022/03/31 03:15:30;;;;;;;21.65;10.70;;;332.90;2329.60;;;;;;5049924;28;20025;-56
2022/03/31 03:17:57;;;;;;;20.45;12.73;;;333.00;2329.60;;;;;;5050263;28;20025;-56
2022/03/31 03:20:24;;;;;;;27.55;14.57;;;333.00;2329.60;;;;;;5049895;28;20497;-55
2022/03/31 03:22:52;;;;;;;24.02;14.63;;;333.00;2329.60;;;;;;5049951;28;20610;-55
2022/03/31 03:25:20;;;;;;;22.33;14.00;;;333.10;2329.60;;;;;;5049704;28;20025;-55
2022/03/31 03:27:47;;;;;;;30.02;16.63;;;333.10;2329.60;;;;;;5049913;28;20508;-55
2022/03/31 03:30:14;;;;;;;32.03;15.73;;;333.20;2329.60;;;;;;5049726;28;20051;-54
2022/03/31 03:32:40;;;;;;;32.00;18.13;;;333.30;2329.60;;;;;;5049998;28;20367;-54
2022/03/31 03:35:08;;;;;;;34.13;16.35;;;333.20;2329.60;;;;;;5049682;28;20413;-56
2022/03/31 03:37:35;;;;;;;27.60;15.40;;;333.30;2329.60;;;;;;5049878;28;20021;-54
2022/03/31 03:40:03;;;;;;;33.90;15.98;;;333.20;2329.60;;;;;;5049866;28;20036;-56
2022/03/31 03:42:29;;;;;;;44.17;18.90;;;333.20;2329.60;;;;;;5049683;28;20048;-54
2022/03/31 03:44:55;;;;;;;32.63;16.70;;;333.30;2329.60;;;;;;5049708;28;20116;-55
2022/03/31 03:47:21;;;;;;;37.20;18.90;;;333.30;2329.60;;;;;;5049819;28;20021;-54
2022/03/31 03:49:48;;;;;;;34.47;18.13;;;333.40;2329.60;;;;;;5049437;28;20048;-56
2022/03/31 03:52:13;;;;;;;40.45;22.20;;;333.30;2329.60;;;;;;5049668;28;20017;-55
2022/03/31 03:54:39;;;;;;;38.30;21.45;;;333.40;2329.60;;;;;;5049520;28;20079;-56
2022/03/31 03:57:05;;;;;;;28.52;17.65;;;333.30;2329.60;;;;;;5049656;28;20479;-55
2022/03/31 03:59:31;;;;;;;25.13;16.27;;;333.30;2329.60;;;;;;5049436;28;20139;-55
2022/03/31 04:01:59;;;;;;;30.70;16.02;;;333.20;2329.60;;;;;;5049868;28;20037;-55
2022/03/31 04:04:25;;;;;;;33.45;16.40;;;333.20;2329.60;;;;;;5049691;28;20029;-55
2022/03/31 04:06:51;;;;;;;30.27;19.30;;;333.10;2329.60;;;;;;5049464;28;20025;-55
2022/03/31 04:09:17;;;;;;;23.90;14.15;;;333.00;2329.60;;;;;;5049342;28;20052;-55
2022/03/31 04:11:43;;;;;;;27.50;15.23;;;333.00;2329.60;;;;;;5052059;28;20383;-55
2022/03/31 04:14:08;;;;;;;29.65;19.33;;;333.00;2329.60;;;;;;5053218;28;20104;-55
2022/03/31 04:16:34;;;;;;;36.97;18.45;;;333.00;2329.60;;;;;;5053700;28;20104;-55
2022/03/31 04:19:00;;;;;;;22.42;11.20;;;333.00;2329.60;;;;;;5053209;28;20374;-55
2022/03/31 04:21:25;;;;;;;30.45;13.73;;;332.90;2329.60;;;;;;5053277;28;20029;-55
2022/03/31 04:23:51;;;;;;;29.83;21.65;;;332.90;2329.60;;;;;;5053302;28;20029;-55
2022/03/31 04:26:17;;;;;;;43.42;25.75;;;332.90;2329.60;;;;;;5053135;28;20108;-55
2022/03/31 04:28:43;;;;;;;49.65;30.25;;;332.90;2329.60;;;;;;5052877;28;20060;-54
2022/03/31 04:31:08;;;;;;;84.30;48.95;;;332.90;2329.60;;;;;;5052975;28;20044;-55
2022/03/31 04:33:34;;;;;;;57.60;30.73;;;332.90;2329.60;;;;;;5053265;28;20033;-56
2022/03/31 04:36:00;;;;;;;37.17;23.48;;;332.80;2329.60;;;;;;5051674;28;20033;-55
2022/03/31 04:38:25;;;;;;;26.48;17.70;;;308.10;2304.00;;;;;;5052871;28;20079;-55
2022/03/31 04:40:51;;;;;;;45.63;28.23;;;332.80;2329.60;;;;;;5052981;28;20033;-54
2022/03/31 04:43:17;;;;;;;34.90;17.20;;;332.80;2329.60;;;;;;5052701;28;20119;-56
2022/03/31 04:45:43;;;;;;;66.05;31.00;;;308.10;2304.00;;;;;;5052865;28;20052;-56
2022/03/31 04:48:08;;;;;;;59.85;31.70;;;308.10;2304.00;;;;;;5052700;28;20105;-56
2022/03/31 04:50:34;;;;;;;47.38;27.83;;;308.10;2304.00;;;;;;5051738;28;20356;-55
2022/03/31 04:53:00;;;;;;;36.28;23.02;;;332.80;2329.60;;;;;;5052600;28;20039;-55
2022/03/31 04:55:26;;;;;;;38.70;27.80;;;332.80;2329.60;;;;;;5052606;28;20039;-61
2022/03/31 04:57:52;;;;;;;56.75;41.55;;;332.80;2329.60;;;;;;5052616;28;20024;-56
2022/03/31 05:00:18;;;;;;;43.65;29.33;;;332.80;2329.60;;;;;;5052379;28;20024;-61
2022/03/31 05:02:44;;;;;;;44.08;26.73;;;332.90;2329.60;;;;;;5052712;28;20064;-65
2022/03/31 05:05:12;;;;;;;40.67;24.70;;;332.90;2329.60;;;;;;5052325;28;20043;-60
2022/03/31 05:07:38;;;;;;;60.72;35.33;;;332.80;2329.60;;;;;;5052297;28;20029;-58
2022/03/31 05:10:05;;;;;;;42.58;24.33;;;332.80;2329.60;;;;;;5052261;28;20037;-56
2022/03/31 05:12:30;;;;;;;43.55;26.13;;;308.10;2304.00;;;;;;5052412;28;20035;-57
2022/03/31 05:14:56;;;;;;;44.28;26.70;;;332.90;2329.60;;;;;;5046278;28;20031;-56
2022/03/31 05:17:22;;;;;;;59.45;31.33;;;332.90;2329.60;;;;;;5033194;28;20033;-60
2022/03/31 05:19:47;;;;;;;67.78;29.40;;;332.90;2329.60;;;;;;5032415;28;20029;-65
2022/03/31 05:22:13;;;;;;;64.43;32.63;;;332.90;2329.60;;;;;;5031959;28;20434;-65
2022/03/31 05:24:39;;;;;;;57.20;27.58;;;333.00;2329.60;;;;;;5032195;28;20475;-59
2022/03/31 05:27:05;;;;;;;42.95;27.27;;;332.90;2329.60;;;;;;5031043;28;20042;-65
2022/03/31 05:29:31;;;;;;;61.97;36.30;;;332.90;2329.60;;;;;;5031684;28;20464;-59
2022/03/31 05:31:59;;;;;;;83.72;52.65;;;333.00;2329.60;;;;;;5032003;28;20531;-64
2022/03/31 05:34:24;;;;;;;71.47;38.65;;;333.00;2329.60;;;;;;5031893;28;20029;-56
2022/03/31 05:36:50;;;;;;;60.35;29.58;;;333.00;2329.60;;;;;;5031899;28;20083;-65
2022/03/31 05:39:16;;;;;;;41.00;26.92;;;333.00;2329.60;;;;;;5031933;28;20036;-62
2022/03/31 05:41:42;;;;;;;37.00;22.27;;;333.00;2329.60;;;;;;5032116;28;20476;-65
2022/03/31 05:44:07;;;;;;;42.30;24.55;;;333.00;2329.60;;;;;;5031718;28;20467;-63
2022/03/31 05:46:33;;;;;;;42.92;27.27;;;333.00;2329.60;;;;;;5031855;28;20025;-58
2022/03/31 05:48:59;;;;;;;53.90;33.60;;;333.00;2329.60;;;;;;5031471;28;20454;-57
2022/03/31 05:51:24;;;;;;;49.90;34.42;;;332.90;2329.60;;;;;;5031651;28;20031;-60
2022/03/31 05:53:50;;;;;;;36.85;28.00;;;332.90;2329.60;;;;;;5031396;28;20033;-64
2022/03/31 05:56:16;;;;;;;49.45;34.00;;;332.90;2329.60;;;;;;5031347;28;20033;-56
2022/03/31 05:58:42;;;;;;;52.63;33.13;;;332.80;2329.60;;;;;;5031561;28;20034;-64
2022/03/31 06:01:07;;;;;;;50.00;35.35;;;332.90;2329.60;;;;;;5031313;28;20029;-57
2022/03/31 06:03:33;;;;;;;68.20;46.55;;;308.10;2304.00;;;;;;5031405;28;20025;-56
2022/03/31 06:05:59;;;;;;;107.50;61.83;;;332.80;2329.60;;;;;;5031109;28;20117;-56
2022/03/31 06:08:25;;;;;;;76.68;47.15;;;332.90;2329.60;;;;;;5031449;28;20049;-64
2022/03/31 06:10:51;;;;;;;73.78;48.55;;;332.90;2329.60;;;;;;5031269;28;20041;-56
2022/03/31 06:13:17;;;;;;;48.42;35.58;;;332.90;2329.60;;;;;;5031243;28;20099;-58
2022/03/31 06:15:43;;;;;;;52.45;35.13;;;332.90;2329.60;;;;;;5031389;28;20472;-56
2022/03/31 06:18:08;;;;;;;55.65;36.70;;;332.90;2329.60;;;;;;5030966;28;20045;-59
2022/03/31 06:20:35;;;;;;;193.95;115.47;;;332.90;2329.60;;;;;;5031414;28;20036;-63
2022/03/31 06:23:01;;;;;;;29.38;16.85;;;333.00;2329.60;;;;;;5031172;28;20400;-56
2022/03/31 06:25:27;;;;;;;39.08;22.52;;;332.90;2329.60;;;;;;5030960;28;20476;-56
2022/03/31 06:27:54;;;;;;;81.32;45.42;;;333.00;2329.60;;;;;;5030860;28;20106;-60
2022/03/31 06:30:19;;;;;;;53.38;32.83;;;333.10;2329.60;;;;;;5030763;28;20029;-61
2022/03/31 06:32:45;;;;;;;45.85;28.48;;;333.10;2329.60;;;;;;5030641;28;20380;-56
2022/03/31 06:35:14;;;;;;;49.20;31.23;;;333.20;2329.60;;;;;;5030402;28;20033;-57
2022/03/31 06:37:49;;;;;;;63.30;34.65;;;333.30;2329.60;;;;;;5030592;28;20468;-62
2022/03/31 06:40:17;;;;;;;57.75;36.70;;;333.40;2329.60;;;;;;5030915;28;20049;-58
2022/03/31 06:42:44;;;;;;;78.72;56.70;;;333.40;2329.60;;;;;;5031055;28;20029;-59
2022/03/31 06:45:15;;;;;;;69.03;50.00;;;333.50;2329.60;;;;;;5033006;28;20022;-55
2022/03/31 06:47:42;;;;;;;59.70;41.33;;;333.60;2329.60;;;;;;5036799;28;20044;-62
2022/03/31 06:50:09;;;;;;;74.43;47.35;;;333.60;2329.60;;;;;;5039736;28;20037;-63
2022/03/31 06:52:35;;;;;;;61.38;40.38;;;333.70;2329.60;;;;;;5040721;28;20023;-65
2022/03/31 06:55:01;;;;;;;69.05;45.38;;;333.60;2329.60;;;;;;5040859;28;20467;-61
2022/03/31 06:57:27;;;;;;;64.88;42.08;;;358.40;2329.60;;;;;;5039337;28;20021;-56
2022/03/31 06:59:53;;;;;;;65.00;42.15;;;358.40;2329.60;;;;;;5039442;28;20032;-56
2022/03/31 07:02:19;;;;;;;77.15;44.17;;;333.70;2329.60;;;;;;5039501;28;20383;-57
2022/03/31 07:04:44;;;;;;;73.25;45.53;;;358.40;2329.60;;;;;;5037858;28;20104;-56
2022/03/31 07:07:10;;;;;;;72.15;45.63;;;358.60;2329.60;;;;;;5039708;28;20036;-55
2022/03/31 07:09:36;;;;;;;60.42;40.20;;;358.70;2329.60;;;;;;5038751;28;20047;-56
2022/03/31 07:12:02;;;;;;;94.20;64.90;;;358.70;2329.60;;;;;;5047021;28;20017;-56
2022/03/31 07:14:28;;;;;;;77.15;51.78;;;358.70;2329.60;;;;;;5050060;28;20078;-55
2022/03/31 07:16:54;;;;;;;73.28;47.47;;;358.80;2329.60;;;;;;5050108;28;20067;-57
2022/03/31 07:19:19;;;;;;;73.35;44.90;;;359.00;2329.60;;;;;;5050046;28;20029;-62
2022/03/31 07:21:45;;;;;;;74.15;46.63;;;358.90;2329.60;;;;;;5050067;28;20445;-56
2022/03/31 07:24:11;;;;;;;71.32;41.78;;;359.00;2329.60;;;;;;5050026;28;20096;-62
2022/03/31 07:26:37;;;;;;;64.80;41.30;;;358.90;2329.60;;;;;;5049912;28;20021;-56
2022/03/31 07:29:03;;;;;;;78.30;55.70;;;358.60;2329.60;;;;;;5049607;28;20049;-56
2022/03/31 07:31:29;;;;;;;60.75;36.33;;;358.80;2329.60;;;;;;5049697;28;20040;-60
2022/03/31 07:33:56;;;;;;;71.00;40.92;;;358.70;2329.60;;;;;;5050149;28;20024;-58
2022/03/31 07:36:21;;;;;;;67.65;41.08;;;358.60;2329.60;;;;;;5049916;28;20025;-56
2022/03/31 07:38:47;;;;;;;74.28;48.65;;;358.80;2329.60;;;;;;5049885;28;20039;-62
2022/03/31 07:41:15;;;;;;;76.40;49.78;;;358.80;2329.60;;;;;;5049719;28;20357;-57
2022/03/31 07:43:41;;;;;;;70.32;48.03;;;359.00;2329.60;;;;;;5049939;28;20021;-57
2022/03/31 07:46:07;;;;;;;84.35;53.75;;;359.00;2329.60;;;;;;5053036;28;20029;-60
2022/03/31 07:48:32;;;;;;;97.72;61.67;;;359.10;2329.60;;;;;;5053791;28;20033;-57
2022/03/31 07:50:59;;;;;;;68.15;42.03;;;359.30;2329.60;;;;;;5053461;28;20086;-62
2022/03/31 07:53:32;;;;;;;69.60;40.75;;;359.20;2329.60;;;;;;5053936;28;20028;-60
2022/03/31 07:56:02;;;;;;;77.80;47.33;;;359.30;2329.60;;;;;;5053678;28;20025;-56
2022/03/31 07:58:29;;;;;;;74.57;49.58;;;384.00;2329.60;;;;;;5053467;28;20075;-63
2022/03/31 08:00:55;;;;;;;95.35;66.57;;;384.00;2329.60;;;;;;5053751;28;20116;-56
2022/03/31 08:03:22;;;;;;;67.05;48.10;;;384.10;2329.60;;;;;;5053795;28;20099;-60
2022/03/31 08:05:48;;;;;;;52.47;35.53;;;384.20;2329.60;;;;;;5053308;28;20025;-63
2022/03/31 08:08:14;;;;;;;52.97;34.97;;;384.30;2329.60;;;;;;5053718;28;20376;-63
2022/03/31 08:10:41;;;;;;;48.70;31.42;;;384.30;2329.60;;;;;;5053169;28;20120;-58
2022/03/31 08:13:08;;;;;;;35.20;24.05;;;384.00;2329.60;;;;;;5053230;28;20036;-59
2022/03/31 08:15:34;;;;;;;51.53;29.05;;;384.10;2329.60;;;;;;5053363;28;20419;-60
2022/03/31 08:18:00;;;;;;;70.82;38.20;;;384.00;2329.60;;;;;;5053339;28;20017;-56
2022/03/31 08:20:27;;;;;;;109.70;71.05;;;359.30;2329.60;;;;;;5053444;28;20052;-56
2022/03/31 08:22:53;;;;;;;79.15;48.17;;;384.10;2329.60;;;;;;5053105;28;20060;-59
2022/03/31 08:25:18;;;;;;;60.30;36.90;;;359.30;2329.60;;;;;;5052981;28;20494;-60
2022/03/31 08:27:45;;;;;;;56.28;36.05;;;359.20;2329.60;;;;;;5053108;28;20053;-55
2022/03/31 08:30:16;;;;;;;60.33;35.08;;;384.00;2329.60;;;;;;5053121;28;20426;-57
2022/03/31 08:32:43;;;;;;;80.03;48.60;;;384.00;2329.60;;;;;;5053278;28;20025;-62
2022/03/31 08:35:11;;;;;;;52.90;27.13;;;384.00;2329.60;;;;;;5052826;28;20541;-62
2022/03/31 08:37:38;;;;;;;42.22;27.35;;;384.00;2329.60;;;;;;5052970;28;20395;-58
2022/03/31 08:40:06;;;;;;;36.70;21.38;;;384.00;2329.60;;;;;;5052967;28;20025;-58
2022/03/31 08:42:32;;;;;;;44.42;25.45;;;359.20;2329.60;;;;;;5051710;28;20041;-57
2022/03/31 08:44:59;;;;;;;48.33;30.88;;;359.20;2329.60;;;;;;5052905;28;20021;-57
2022/03/31 08:47:27;;;;;;;53.70;27.75;;;384.00;2329.60;;;;;;5052929;28;20268;-56
2022/03/31 08:49:56;;;;;;;62.60;45.85;;;384.20;2329.60;;;;;;5052701;28;20040;-56
2022/03/31 08:52:23;;;;;;;43.65;27.52;;;384.10;2329.60;;;;;;5052714;28;20021;-62
2022/03/31 08:54:49;;;;;;;39.38;27.42;;;384.30;2329.60;;;;;;5052526;28;20104;-61
2022/03/31 08:57:16;;;;;;;48.13;29.90;;;384.60;2329.60;;;;;;5050839;28;20382;-63
2022/03/31 08:59:41;;;;;;;73.07;32.20;;;384.60;2329.60;;;;;;5052689;28;20040;-57
2022/03/31 09:02:09;;;;;;;57.45;32.38;;;384.60;2329.60;;;;;;5052400;28;20475;-57
2022/03/31 09:04:35;;;;;;;41.67;25.83;;;384.70;2329.60;;;;;;5052536;28;20450;-59
2022/03/31 09:07:02;;;;;;;31.45;21.38;;;384.90;2329.60;;;;;;5052405;28;20053;-58
2022/03/31 09:09:28;;;;;;;46.45;27.88;;;409.60;2355.20;;;;;;5052390;28;20043;-60
2022/03/31 09:11:54;;;;;;;45.30;29.45;;;409.70;2355.20;;;;;;5052406;28;20021;-59
2022/03/31 09:14:32;;;;;;;47.53;27.33;;;409.70;2355.20;;;;;;5052393;28;20025;-60
2022/03/31 09:17:12;;;;;;;67.88;41.80;;;409.70;2355.20;;;;;;5052224;28;20120;-62
2022/03/31 09:19:38;;;;;;;66.63;46.30;;;409.80;2355.20;;;;;;5052125;28;20028;-57
2022/03/31 09:22:04;;;;;;;69.78;43.22;;;409.80;2355.20;;;;;;5052252;28;20021;-57
2022/03/31 09:24:31;;;;;;;88.68;57.28;;;409.70;2355.20;;;;;;5052172;28;20035;-60
2022/03/31 09:26:58;;;;;;;84.78;54.75;;;409.80;2355.20;;;;;;5052032;28;20032;-56
2022/03/31 09:29:26;;;;;;;165.38;129.40;;;410.00;2355.20;;;;;;5051652;28;20084;-57
2022/03/31 09:32:04;;;;;;;61.20;37.08;;;410.00;2355.20;;;;;;5052363;28;20352;-57
2022/03/31 09:34:38;;;;;;;58.17;41.13;;;410.30;2355.20;;;;;;5052094;28;20028;-58
2022/03/31 09:37:04;;;;;;;59.08;34.70;;;410.50;2355.20;;;;;;5052098;28;20109;-57
2022/03/31 09:39:30;;;;;;;71.93;42.95;;;435.20;2355.20;;;;;;5051783;28;20120;-57
2022/03/31 09:41:57;;;;;;;83.95;55.75;;;435.20;2355.20;;;;;;5051761;28;20421;-57
2022/03/31 09:44:23;;;;;;;83.10;51.28;;;435.60;2355.20;;;;;;5039836;28;20736;-56
2022/03/31 09:46:51;;;;;;;72.65;45.80;;;435.80;2355.20;;;;;;5039602;28;20498;-55
2022/03/31 09:49:21;;;;;;;49.45;29.17;;;460.80;2329.60;;;;;;5041496;28;20072;-57
2022/03/31 09:51:58;;;;;;;60.00;38.85;;;461.10;2201.60;;;;;;5051455;28;20045;-57
2022/03/31 09:54:26;;;;;;;53.47;28.50;;;461.00;2227.20;;;;;;5051605;28;20047;-57
2022/03/31 09:56:53;;;;;;;48.28;20.50;;;460.80;2278.40;;;;;;5051540;28;20028;-63
2022/03/31 09:59:19;;;;;;;42.42;22.13;;;460.90;2252.80;;;;;;5051105;28;20506;-57
2022/03/31 10:01:45;;;;;;;43.92;29.80;;;461.10;2227.20;;;;;;5051502;28;20029;-63
2022/03/31 10:04:13;;;;;;;36.03;17.60;;;460.80;2278.40;;;;;;5051373;28;20028;-57
2022/03/31 10:06:41;;;;;;;20.50;12.77;;;460.80;2201.60;;;;;;5051120;28;20482;-61
2022/03/31 10:09:09;;;;;;;40.53;22.27;;;460.90;2150.40;;;;;;5050029;28;20112;-57
2022/03/31 10:11:39;;;;;;;19.75;11.85;;;461.10;2073.60;;;;;;5051487;28;20021;-59
2022/03/31 10:14:20;;;;;;;15.48;8.05;;;461.20;1996.80;;;;;;5051182;28;20519;-62
2022/03/31 10:16:55;;;;;;;13.38;8.30;;;461.50;1894.40;;;;;;5051259;28;20048;-61
2022/03/31 10:19:39;;;;;;;5.85;3.70;;;461.60;1817.60;;;;;;5050033;28;20044;-64
2022/03/31 10:25:12;;;;;;;14.88;9.23;;;486.40;1766.40;;;;;;5051305;28;20021;-57
2022/03/31 10:27:40;;;;;;;12.38;5.75;;;486.50;1792.00;;;;;;5050658;28;20182;-57
2022/03/31 10:30:14;;;;;;;9.38;7.85;;;486.50;1715.20;;;;;;5050711;28;20037;-60
2022/03/31 10:32:58;;;;;;;;;;;486.60;1715.20;;;;;;5051139;28;20379;-57
2022/03/31 10:35:36;;;;;;;14.88;8.55;;;486.70;1715.20;;;;;;5050751;28;20370;-56
2022/03/31 10:38:18;;;;;;;13.02;7.20;;;486.70;1715.20;;;;;;5050814;28;20098;-59
2022/03/31 10:40:50;;;;;;;11.48;6.05;;;486.80;1715.20;;;;;;5050725;28;20040;-64
2022/03/31 10:43:30;;;;;;;13.80;7.82;;;486.80;1664.00;;;;;;5050385;28;20116;-59
2022/03/31 10:45:58;;;;;;;15.77;8.63;;;487.00;1664.00;;;;;;5050691;28;20033;-61
2022/03/31 10:48:29;;;;;;;7.95;5.75;;;486.90;1638.40;;;;;;5050500;28;20059;-62
2022/03/31 10:51:07;;;;;;;9.80;7.13;;;487.00;1638.40;;;;;;5050620;28;20433;-58
2022/03/31 10:53:44;;;;;;;20.05;12.77;;;487.10;1638.40;;;;;;5050518;28;20029;-65
2022/03/31 10:56:26;;;;;;;27.20;16.08;;;487.10;1638.40;;;;;;5050478;28;20028;-56
2022/03/31 10:59:00;;;;;;;7.07;4.15;;;487.20;1612.80;;;;;;5050498;28;20029;-64
2022/03/31 11:01:28;;;;;;;6.38;3.05;;;487.30;1612.80;;;;;;5050470;28;20037;-58
2022/03/31 11:04:01;;;;;;;11.15;7.18;;;512.00;1612.80;;;;;;5050473;28;20025;-65
2022/03/31 11:06:28;;;;;;;5.05;3.10;;;512.10;1587.20;;;;;;5050426;28;20419;-61
2022/03/31 11:08:54;;;;;;;23.25;12.00;;;512.20;1561.60;;;;;;5050307;28;20051;-64
2022/03/31 11:11:40;;;;;;;8.10;3.88;;;512.30;1536.00;;;;;;5050182;28;20528;-64
2022/03/31 11:14:09;;;;;;;15.35;9.68;;;512.40;1536.00;;;;;;5050004;28;20028;-57
2022/03/31 11:16:38;;;;;;;20.60;13.38;;;512.50;1536.00;;;;;;5050391;28;20017;-64
2022/03/31 11:19:05;;;;;;;9.45;6.40;;;512.60;1536.00;;;;;;5050034;28;20055;-64
2022/03/31 11:21:35;;;;;;;30.60;19.60;;;512.70;1510.40;;;;;;5050172;28;20444;-59
2022/03/31 11:24:01;;;;;;;34.35;23.45;;;512.90;1484.80;;;;;;5050051;28;20063;-58
2022/03/31 11:26:30;;;;;;;7.93;5.00;;;537.60;1536.00;;;;;;5050002;28;20064;-58
2022/03/31 11:28:56;;;;;;;28.15;21.95;;;537.60;1536.00;;;;;;5049589;28;20131;-57
2022/03/31 11:31:25;;;;;;;17.98;14.75;;;537.80;1561.60;;;;;;5049724;28;20048;-61
2022/03/31 11:33:51;;;;;;;63.08;49.45;;;537.70;1536.00;;;;;;5049736;28;20041;-60
2022/03/31 11:36:18;;;;;;;28.73;25.05;;;537.80;1536.00;;;;;;5049450;28;20021;-58
2022/03/31 11:38:58;;;;;;;27.17;23.17;;;537.90;1536.00;;;;;;5049994;28;20017;-58
2022/03/31 11:41:25;;;;;;;18.67;12.07;;;538.10;1536.00;;;;;;5049948;28;20028;-64
2022/03/31 11:43:56;;;;;;;9.48;7.95;;;538.10;1510.40;;;;;;5049875;28;20227;-64
2022/03/31 11:46:22;;;;;;;6.88;3.70;;;538.20;1510.40;;;;;;5049888;28;20112;-62
2022/03/31 11:48:49;;;;;;;20.08;10.25;;;538.40;1484.80;;;;;;5049805;28;20100;-65
2022/03/31 11:51:15;;;;;;;17.85;12.05;;;538.50;1459.20;;;;;;5049689;28;20494;-62
2022/03/31 11:53:44;;;;;;;13.48;10.20;;;538.50;1459.20;;;;;;5049909;28;20033;-64
2022/03/31 11:56:18;;;;;;;15.40;11.65;;;538.50;1459.20;;;;;;5049688;28;20135;-60
2022/03/31 11:58:49;;;;;;;7.47;4.45;;;538.50;1459.20;;;;;;5049727;28;20025;-65
2022/03/31 12:01:20;;;;;;;5.40;2.92;;;538.50;1433.60;;;;;;5049760;28;20120;-59
2022/03/31 12:03:46;;;;;;;6.03;3.70;;;538.50;1433.60;;;;;;5049641;28;20494;-59
2022/03/31 12:06:16;;;;;;;10.13;5.88;;;563.20;1484.80;;;;;;5049692;28;20108;-63
2022/03/31 12:08:43;;;;;;;10.82;6.88;;;563.30;1459.20;;;;;;5049558;28;20452;-64